sensor_id;sensor_type;location;lat;lon;timestamp;P1;durP1;ratioP1;P2;durP2;ratioP2
6832;SDS011;3454;42.654;23.378;2022-09-21T00:01:16;1.93;;;1.70;;
6832;SDS011;3454;42.654;23.378;2022-09-21T00:03:43;1.80;;;1.70;;
6832;SDS011;3454;42.654;23.378;2022-09-21T00:06:13;1.70;;;1.60;;
6832;SDS011;3454;42.654;23.378;2022-09-21T00:08:40;2.90;;;1.73;;
6832;SDS011;3454;42.654;23.378;2022-09-21T00:11:06;2.47;;;1.67;;
6832;SDS011;3454;42.654;23.378;2022-09-21T00:13:35;2.73;;;1.40;;
6832;SDS011;3454;42.654;23.378;2022-09-21T00:16:03;2.40;;;1.87;;
6832;SDS011;3454;42.654;23.378;2022-09-21T00:18:31;2.93;;;2.00;;
6832;SDS011;3454;42.654;23.378;2022-09-21T00:20:56;2.20;;;2.03;;
6832;SDS011;3454;42.654;23.378;2022-09-21T00:23:22;2.50;;;2.30;;
6832;SDS011;3454;42.654;23.378;2022-09-21T00:25:47;4.47;;;2.40;;
6832;SDS011;3454;42.654;23.378;2022-09-21T00:28:13;2.30;;;2.00;;
6832;SDS011;3454;42.654;23.378;2022-09-21T00:30:38;6.20;;;2.83;;
6832;SDS011;3454;42.654;23.378;2022-09-21T00:33:04;4.43;;;2.63;;
6832;SDS011;3454;42.654;23.378;2022-09-21T00:35:30;2.77;;;2.50;;
6832;SDS011;3454;42.654;23.378;2022-09-21T00:37:59;4.27;;;3.17;;
6832;SDS011;3454;42.654;23.378;2022-09-21T00:40:25;4.90;;;2.87;;
6832;SDS011;3454;42.654;23.378;2022-09-21T00:43:11;3.77;;;2.80;;
6832;SDS011;3454;42.654;23.378;2022-09-21T00:45:38;6.63;;;3.00;;
6832;SDS011;3454;42.654;23.378;2022-09-21T00:48:04;4.50;;;2.60;;
6832;SDS011;3454;42.654;23.378;2022-09-21T00:50:29;3.03;;;2.50;;
6832;SDS011;3454;42.654;23.378;2022-09-21T00:52:55;3.50;;;2.10;;
6832;SDS011;3454;42.654;23.378;2022-09-21T00:55:30;7.17;;;2.60;;
6832;SDS011;3454;42.654;23.378;2022-09-21T00:58:02;8.00;;;2.50;;
6832;SDS011;3454;42.654;23.378;2022-09-21T01:00:37;3.30;;;2.03;;
6832;SDS011;3454;42.654;23.378;2022-09-21T01:03:04;2.40;;;2.20;;
6832;SDS011;3454;42.654;23.378;2022-09-21T01:05:30;5.00;;;2.20;;
6832;SDS011;3454;42.654;23.378;2022-09-21T01:07:56;2.37;;;2.17;;
6832;SDS011;3454;42.654;23.378;2022-09-21T01:10:25;2.73;;;2.00;;
6832;SDS011;3454;42.654;23.378;2022-09-21T01:18:39;3.27;;;2.57;;
6832;SDS011;3454;42.654;23.378;2022-09-21T01:31:38;4.20;;;3.33;;
6832;SDS011;3454;42.654;23.378;2022-09-21T01:34:13;4.63;;;3.43;;
6832;SDS011;3454;42.654;23.378;2022-09-21T01:36:48;5.03;;;3.60;;
6832;SDS011;3454;42.654;23.378;2022-09-21T01:39:17;5.63;;;3.93;;
6832;SDS011;3454;42.654;23.378;2022-09-21T01:41:44;4.90;;;3.20;;
6832;SDS011;3454;42.654;23.378;2022-09-21T01:44:14;6.57;;;3.67;;
6832;SDS011;3454;42.654;23.378;2022-09-21T01:46:45;4.37;;;3.40;;
6832;SDS011;3454;42.654;23.378;2022-09-21T01:49:12;4.10;;;3.10;;
6832;SDS011;3454;42.654;23.378;2022-09-21T01:51:42;5.77;;;3.50;;
6832;SDS011;3454;42.654;23.378;2022-09-21T01:54:14;3.93;;;3.20;;
6832;SDS011;3454;42.654;23.378;2022-09-21T01:56:58;5.23;;;3.70;;
6832;SDS011;3454;42.654;23.378;2022-09-21T02:02:12;5.13;;;2.80;;
6832;SDS011;3454;42.654;23.378;2022-09-21T02:04:43;4.80;;;3.43;;
6832;SDS011;3454;42.654;23.378;2022-09-21T02:07:08;4.10;;;3.00;;
6832;SDS011;3454;42.654;23.378;2022-09-21T02:09:35;3.63;;;3.17;;
6832;SDS011;3454;42.654;23.378;2022-09-21T02:12:01;3.37;;;2.87;;
6832;SDS011;3454;42.654;23.378;2022-09-21T02:14:27;4.63;;;3.57;;
6832;SDS011;3454;42.654;23.378;2022-09-21T02:19:54;4.90;;;3.77;;
6832;SDS011;3454;42.654;23.378;2022-09-21T02:22:31;4.77;;;3.63;;
6832;SDS011;3454;42.654;23.378;2022-09-21T02:27:54;5.10;;;3.70;;
6832;SDS011;3454;42.654;23.378;2022-09-21T02:30:23;6.43;;;3.30;;
6832;SDS011;3454;42.654;23.378;2022-09-21T02:35:50;8.93;;;3.50;;
6832;SDS011;3454;42.654;23.378;2022-09-21T02:38:34;4.93;;;2.80;;
6832;SDS011;3454;42.654;23.378;2022-09-21T02:43:44;3.67;;;2.50;;
6832;SDS011;3454;42.654;23.378;2022-09-21T02:46:49;3.63;;;2.93;;
6832;SDS011;3454;42.654;23.378;2022-09-21T02:49:22;4.27;;;2.87;;
6832;SDS011;3454;42.654;23.378;2022-09-21T02:51:52;3.13;;;2.83;;
6832;SDS011;3454;42.654;23.378;2022-09-21T02:54:24;2.43;;;2.23;;
6832;SDS011;3454;42.654;23.378;2022-09-21T02:56:52;4.33;;;2.80;;
6832;SDS011;3454;42.654;23.378;2022-09-21T02:59:19;7.73;;;2.67;;
6832;SDS011;3454;42.654;23.378;2022-09-21T03:01:47;5.80;;;2.87;;
6832;SDS011;3454;42.654;23.378;2022-09-21T03:04:13;3.90;;;2.33;;
6832;SDS011;3454;42.654;23.378;2022-09-21T03:06:38;2.83;;;2.10;;
6832;SDS011;3454;42.654;23.378;2022-09-21T03:09:05;6.80;;;2.60;;
6832;SDS011;3454;42.654;23.378;2022-09-21T03:11:30;4.83;;;2.33;;
6832;SDS011;3454;42.654;23.378;2022-09-21T03:13:56;3.00;;;2.40;;
6832;SDS011;3454;42.654;23.378;2022-09-21T03:16:23;4.67;;;2.67;;
6832;SDS011;3454;42.654;23.378;2022-09-21T03:18:49;3.70;;;2.37;;
6832;SDS011;3454;42.654;23.378;2022-09-21T03:21:15;2.73;;;2.20;;
6832;SDS011;3454;42.654;23.378;2022-09-21T03:23:40;2.33;;;2.13;;
6832;SDS011;3454;42.654;23.378;2022-09-21T03:26:06;3.00;;;2.60;;
6832;SDS011;3454;42.654;23.378;2022-09-21T03:28:32;3.97;;;3.40;;
6832;SDS011;3454;42.654;23.378;2022-09-21T03:30:58;5.20;;;3.40;;
6832;SDS011;3454;42.654;23.378;2022-09-21T03:33:24;6.00;;;3.30;;
6832;SDS011;3454;42.654;23.378;2022-09-21T03:35:50;9.10;;;4.23;;
6832;SDS011;3454;42.654;23.378;2022-09-21T03:38:16;7.33;;;3.80;;
6832;SDS011;3454;42.654;23.378;2022-09-21T03:40:46;9.80;;;3.50;;
6832;SDS011;3454;42.654;23.378;2022-09-21T03:43:12;4.77;;;3.27;;
6832;SDS011;3454;42.654;23.378;2022-09-21T03:45:37;4.40;;;3.30;;
6832;SDS011;3454;42.654;23.378;2022-09-21T03:48:05;4.37;;;3.47;;
6832;SDS011;3454;42.654;23.378;2022-09-21T03:50:30;6.60;;;3.20;;
6832;SDS011;3454;42.654;23.378;2022-09-21T03:52:56;11.23;;;3.47;;
6832;SDS011;3454;42.654;23.378;2022-09-21T03:55:21;6.77;;;3.40;;
6832;SDS011;3454;42.654;23.378;2022-09-21T03:57:47;5.07;;;3.53;;
6832;SDS011;3454;42.654;23.378;2022-09-21T04:00:13;5.23;;;3.17;;
6832;SDS011;3454;42.654;23.378;2022-09-21T04:02:39;5.77;;;3.13;;
6832;SDS011;3454;42.654;23.378;2022-09-21T04:05:05;5.50;;;3.07;;
6832;SDS011;3454;42.654;23.378;2022-09-21T04:07:35;6.13;;;3.63;;
6832;SDS011;3454;42.654;23.378;2022-09-21T04:10:04;8.27;;;3.27;;
6832;SDS011;3454;42.654;23.378;2022-09-21T04:12:32;4.57;;;3.20;;
6832;SDS011;3454;42.654;23.378;2022-09-21T04:15:09;3.90;;;3.50;;
6832;SDS011;3454;42.654;23.378;2022-09-21T04:17:36;4.67;;;3.60;;
6832;SDS011;3454;42.654;23.378;2022-09-21T04:20:02;5.27;;;3.23;;
6832;SDS011;3454;42.654;23.378;2022-09-21T04:22:28;5.60;;;3.03;;
6832;SDS011;3454;42.654;23.378;2022-09-21T04:24:53;5.27;;;3.10;;
6832;SDS011;3454;42.654;23.378;2022-09-21T04:27:19;4.53;;;3.03;;
6832;SDS011;3454;42.654;23.378;2022-09-21T04:29:44;4.10;;;3.13;;
6832;SDS011;3454;42.654;23.378;2022-09-21T04:32:10;5.73;;;3.43;;
6832;SDS011;3454;42.654;23.378;2022-09-21T04:34:36;6.83;;;3.40;;
6832;SDS011;3454;42.654;23.378;2022-09-21T04:37:08;5.10;;;3.87;;
6832;SDS011;3454;42.654;23.378;2022-09-21T04:39:36;4.47;;;3.37;;
6832;SDS011;3454;42.654;23.378;2022-09-21T04:42:02;8.43;;;3.80;;
6832;SDS011;3454;42.654;23.378;2022-09-21T04:44:28;7.03;;;3.77;;
6832;SDS011;3454;42.654;23.378;2022-09-21T04:46:54;7.50;;;4.37;;
6832;SDS011;3454;42.654;23.378;2022-09-21T04:49:19;6.13;;;4.23;;
6832;SDS011;3454;42.654;23.378;2022-09-21T04:51:45;6.90;;;4.37;;
6832;SDS011;3454;42.654;23.378;2022-09-21T04:54:10;11.73;;;4.13;;
6832;SDS011;3454;42.654;23.378;2022-09-21T04:56:36;7.70;;;4.07;;
6832;SDS011;3454;42.654;23.378;2022-09-21T04:59:01;7.03;;;4.00;;
6832;SDS011;3454;42.654;23.378;2022-09-21T05:01:27;6.60;;;3.80;;
6832;SDS011;3454;42.654;23.378;2022-09-21T05:03:52;6.10;;;4.10;;
6832;SDS011;3454;42.654;23.378;2022-09-21T05:06:18;7.60;;;4.00;;
6832;SDS011;3454;42.654;23.378;2022-09-21T05:08:43;7.27;;;3.77;;
6832;SDS011;3454;42.654;23.378;2022-09-21T05:11:27;6.57;;;3.90;;
6832;SDS011;3454;42.654;23.378;2022-09-21T05:13:53;10.03;;;4.33;;
6832;SDS011;3454;42.654;23.378;2022-09-21T05:16:18;7.47;;;3.40;;
6832;SDS011;3454;42.654;23.378;2022-09-21T05:18:44;11.60;;;4.93;;
6832;SDS011;3454;42.654;23.378;2022-09-21T05:21:11;6.80;;;3.53;;
6832;SDS011;3454;42.654;23.378;2022-09-21T05:23:37;6.00;;;3.27;;
6832;SDS011;3454;42.654;23.378;2022-09-21T05:26:03;6.30;;;3.40;;
6832;SDS011;3454;42.654;23.378;2022-09-21T05:28:29;8.93;;;3.27;;
6832;SDS011;3454;42.654;23.378;2022-09-21T05:33:49;3.73;;;2.90;;
6832;SDS011;3454;42.654;23.378;2022-09-21T05:39:01;8.57;;;3.83;;
6832;SDS011;3454;42.654;23.378;2022-09-21T05:41:27;9.63;;;3.63;;
6832;SDS011;3454;42.654;23.378;2022-09-21T05:43:53;8.13;;;3.63;;
6832;SDS011;3454;42.654;23.378;2022-09-21T05:46:38;5.13;;;3.33;;
6832;SDS011;3454;42.654;23.378;2022-09-21T05:52:14;4.00;;;3.13;;
6832;SDS011;3454;42.654;23.378;2022-09-21T06:03:44;7.20;;;4.00;;
6832;SDS011;3454;42.654;23.378;2022-09-21T06:06:12;7.80;;;3.50;;
6832;SDS011;3454;42.654;23.378;2022-09-21T06:08:38;7.13;;;3.50;;
6832;SDS011;3454;42.654;23.378;2022-09-21T06:11:03;8.63;;;4.30;;
6832;SDS011;3454;42.654;23.378;2022-09-21T06:13:29;8.30;;;3.90;;
6832;SDS011;3454;42.654;23.378;2022-09-21T06:15:55;7.67;;;3.77;;
6832;SDS011;3454;42.654;23.378;2022-09-21T06:18:21;8.03;;;4.17;;
6832;SDS011;3454;42.654;23.378;2022-09-21T06:20:46;10.27;;;4.70;;
6832;SDS011;3454;42.654;23.378;2022-09-21T06:23:12;9.30;;;3.70;;
6832;SDS011;3454;42.654;23.378;2022-09-21T06:25:38;6.97;;;3.93;;
6832;SDS011;3454;42.654;23.378;2022-09-21T06:28:04;11.80;;;4.00;;
6832;SDS011;3454;42.654;23.378;2022-09-21T06:30:35;4.37;;;3.63;;
6832;SDS011;3454;42.654;23.378;2022-09-21T06:33:04;9.67;;;3.77;;
6832;SDS011;3454;42.654;23.378;2022-09-21T06:35:31;9.93;;;3.97;;
6832;SDS011;3454;42.654;23.378;2022-09-21T06:38:03;9.83;;;4.70;;
6832;SDS011;3454;42.654;23.378;2022-09-21T06:40:30;10.43;;;5.70;;
6832;SDS011;3454;42.654;23.378;2022-09-21T06:42:57;9.57;;;4.80;;
6832;SDS011;3454;42.654;23.378;2022-09-21T06:45:24;6.53;;;4.23;;
6832;SDS011;3454;42.654;23.378;2022-09-21T06:47:50;7.00;;;3.90;;
6832;SDS011;3454;42.654;23.378;2022-09-21T06:50:16;5.13;;;3.30;;
6832;SDS011;3454;42.654;23.378;2022-09-21T06:52:41;9.47;;;3.67;;
6832;SDS011;3454;42.654;23.378;2022-09-21T06:55:07;5.17;;;2.77;;
6832;SDS011;3454;42.654;23.378;2022-09-21T06:57:34;4.70;;;3.43;;
6832;SDS011;3454;42.654;23.378;2022-09-21T07:00:03;5.07;;;3.33;;
6832;SDS011;3454;42.654;23.378;2022-09-21T07:02:29;2.87;;;1.83;;
6832;SDS011;3454;42.654;23.378;2022-09-21T07:04:55;3.57;;;1.70;;
6832;SDS011;3454;42.654;23.378;2022-09-21T07:07:22;2.60;;;1.83;;
6832;SDS011;3454;42.654;23.378;2022-09-21T07:09:48;2.13;;;1.53;;
6832;SDS011;3454;42.654;23.378;2022-09-21T07:12:13;1.70;;;1.40;;
6832;SDS011;3454;42.654;23.378;2022-09-21T07:14:40;2.53;;;1.80;;
6832;SDS011;3454;42.654;23.378;2022-09-21T07:17:08;2.07;;;1.53;;
6832;SDS011;3454;42.654;23.378;2022-09-21T07:19:33;4.90;;;1.67;;
6832;SDS011;3454;42.654;23.378;2022-09-21T07:21:59;6.30;;;1.70;;
6832;SDS011;3454;42.654;23.378;2022-09-21T07:24:24;2.93;;;1.70;;
6832;SDS011;3454;42.654;23.378;2022-09-21T07:26:50;2.00;;;1.70;;
6832;SDS011;3454;42.654;23.378;2022-09-21T07:29:15;3.67;;;1.67;;
6832;SDS011;3454;42.654;23.378;2022-09-21T07:31:43;2.30;;;1.77;;
6832;SDS011;3454;42.654;23.378;2022-09-21T07:34:09;2.90;;;1.60;;
6832;SDS011;3454;42.654;23.378;2022-09-21T07:36:35;2.00;;;1.90;;
6832;SDS011;3454;42.654;23.378;2022-09-21T07:39:01;3.20;;;1.93;;
6832;SDS011;3454;42.654;23.378;2022-09-21T07:41:27;3.30;;;1.70;;
6832;SDS011;3454;42.654;23.378;2022-09-21T07:43:53;2.80;;;2.33;;
6832;SDS011;3454;42.654;23.378;2022-09-21T07:46:18;6.13;;;2.63;;
6832;SDS011;3454;42.654;23.378;2022-09-21T07:48:44;2.23;;;2.03;;
6832;SDS011;3454;42.654;23.378;2022-09-21T07:51:11;2.83;;;2.00;;
6832;SDS011;3454;42.654;23.378;2022-09-21T07:53:39;4.83;;;1.77;;
6832;SDS011;3454;42.654;23.378;2022-09-21T07:56:07;3.13;;;1.93;;
6832;SDS011;3454;42.654;23.378;2022-09-21T07:58:34;4.53;;;1.80;;
6832;SDS011;3454;42.654;23.378;2022-09-21T08:01:19;5.10;;;2.00;;
6832;SDS011;3454;42.654;23.378;2022-09-21T08:03:47;2.33;;;1.83;;
6832;SDS011;3454;42.654;23.378;2022-09-21T08:06:13;8.87;;;1.90;;
6832;SDS011;3454;42.654;23.378;2022-09-21T08:08:38;1.93;;;1.73;;
6832;SDS011;3454;42.654;23.378;2022-09-21T08:11:05;2.60;;;1.60;;
6832;SDS011;3454;42.654;23.378;2022-09-21T08:13:32;6.97;;;2.17;;
6832;SDS011;3454;42.654;23.378;2022-09-21T08:15:58;1.87;;;1.70;;
6832;SDS011;3454;42.654;23.378;2022-09-21T08:18:24;2.83;;;2.20;;
6832;SDS011;3454;42.654;23.378;2022-09-21T08:20:58;2.33;;;1.80;;
6832;SDS011;3454;42.654;23.378;2022-09-21T08:23:25;2.70;;;1.47;;
6832;SDS011;3454;42.654;23.378;2022-09-21T08:25:57;2.13;;;1.90;;
6832;SDS011;3454;42.654;23.378;2022-09-21T08:28:24;4.47;;;2.10;;
6832;SDS011;3454;42.654;23.378;2022-09-21T08:30:50;2.70;;;1.87;;
6832;SDS011;3454;42.654;23.378;2022-09-21T08:33:15;3.13;;;2.03;;
6832;SDS011;3454;42.654;23.378;2022-09-21T08:35:41;3.03;;;1.73;;
6832;SDS011;3454;42.654;23.378;2022-09-21T08:38:06;7.83;;;2.33;;
6832;SDS011;3454;42.654;23.378;2022-09-21T08:40:32;6.13;;;2.40;;
6832;SDS011;3454;42.654;23.378;2022-09-21T08:42:59;2.80;;;2.10;;
6832;SDS011;3454;42.654;23.378;2022-09-21T08:45:36;4.33;;;1.80;;
6832;SDS011;3454;42.654;23.378;2022-09-21T08:48:10;5.57;;;1.70;;
6832;SDS011;3454;42.654;23.378;2022-09-21T08:50:42;3.27;;;2.30;;
6832;SDS011;3454;42.654;23.378;2022-09-21T08:53:16;4.93;;;2.10;;
6832;SDS011;3454;42.654;23.378;2022-09-21T08:56:03;2.77;;;1.73;;
6832;SDS011;3454;42.654;23.378;2022-09-21T08:58:30;4.77;;;1.70;;
6832;SDS011;3454;42.654;23.378;2022-09-21T09:04:16;1.30;;;1.20;;
6832;SDS011;3454;42.654;23.378;2022-09-21T09:07:08;3.10;;;1.23;;
6832;SDS011;3454;42.654;23.378;2022-09-21T09:21:21;8.30;;;2.60;;
6832;SDS011;3454;42.654;23.378;2022-09-21T09:31:44;2.03;;;1.50;;
6832;SDS011;3454;42.654;23.378;2022-09-21T09:34:16;3.40;;;2.07;;
6832;SDS011;3454;42.654;23.378;2022-09-21T09:36:53;4.00;;;1.57;;
6832;SDS011;3454;42.654;23.378;2022-09-21T09:39:22;4.37;;;1.80;;
6832;SDS011;3454;42.654;23.378;2022-09-21T09:42:03;4.90;;;1.50;;
6832;SDS011;3454;42.654;23.378;2022-09-21T09:47:17;1.83;;;1.33;;
6832;SDS011;3454;42.654;23.378;2022-09-21T09:50:10;2.57;;;1.57;;
6832;SDS011;3454;42.654;23.378;2022-09-21T09:52:44;2.27;;;1.50;;
6832;SDS011;3454;42.654;23.378;2022-09-21T09:55:18;5.20;;;1.58;;
6832;SDS011;3454;42.654;23.378;2022-09-21T09:57:47;1.83;;;1.60;;
6832;SDS011;3454;42.654;23.378;2022-09-21T10:00:14;3.38;;;1.70;;
6832;SDS011;3454;42.654;23.378;2022-09-21T10:02:52;1.47;;;1.13;;
6832;SDS011;3454;42.654;23.378;2022-09-21T10:05:41;1.87;;;1.40;;
6832;SDS011;3454;42.654;23.378;2022-09-21T10:08:14;2.47;;;1.23;;
6832;SDS011;3454;42.654;23.378;2022-09-21T10:10:52;0.77;;;0.77;;
6832;SDS011;3454;42.654;23.378;2022-09-21T10:13:38;2.50;;;0.80;;
6832;SDS011;3454;42.654;23.378;2022-09-21T10:21:20;1.20;;;0.70;;
6832;SDS011;3454;42.654;23.378;2022-09-21T10:23:49;1.40;;;0.90;;
6832;SDS011;3454;42.654;23.378;2022-09-21T10:26:17;1.70;;;0.80;;
6832;SDS011;3454;42.654;23.378;2022-09-21T10:28:54;0.85;;;0.85;;
6832;SDS011;3454;42.654;23.378;2022-09-21T10:31:22;1.63;;;1.25;;
6832;SDS011;3454;42.654;23.378;2022-09-21T10:36:32;0.90;;;0.88;;
6832;SDS011;3454;42.654;23.378;2022-09-21T10:39:16;3.20;;;1.20;;
6832;SDS011;3454;42.654;23.378;2022-09-21T10:41:46;1.48;;;1.23;;
6832;SDS011;3454;42.654;23.378;2022-09-21T10:44:25;0.55;;;0.55;;
6832;SDS011;3454;42.654;23.378;2022-09-21T10:46:53;1.05;;;0.90;;
6832;SDS011;3454;42.654;23.378;2022-09-21T10:49:26;0.90;;;0.90;;
6832;SDS011;3454;42.654;23.378;2022-09-21T10:51:54;1.85;;;0.70;;
6832;SDS011;3454;42.654;23.378;2022-09-21T10:54:23;0.73;;;0.70;;
6832;SDS011;3454;42.654;23.378;2022-09-21T10:56:53;0.70;;;0.70;;
6832;SDS011;3454;42.654;23.378;2022-09-21T10:59:29;0.60;;;0.60;;
6832;SDS011;3454;42.654;23.378;2022-09-21T11:01:56;2.40;;;0.50;;
6832;SDS011;3454;42.654;23.378;2022-09-21T11:07:15;1.75;;;0.57;;
6832;SDS011;3454;42.654;23.378;2022-09-21T11:10:00;0.57;;;0.55;;
6832;SDS011;3454;42.654;23.378;2022-09-21T11:12:53;1.30;;;1.20;;
6832;SDS011;3454;42.654;23.378;2022-09-21T11:20:55;0.88;;;0.80;;
6832;SDS011;3454;42.654;23.378;2022-09-21T11:26:58;1.17;;;1.00;;
6832;SDS011;3454;42.654;23.378;2022-09-21T11:29:04;1.50;;;1.20;;
6832;SDS011;3454;42.654;23.378;2022-09-21T11:37:27;0.75;;;0.60;;
6832;SDS011;3454;42.654;23.378;2022-09-21T11:40:47;1.17;;;0.68;;
6832;SDS011;3454;42.654;23.378;2022-09-21T11:50:38;0.60;;;0.60;;
6832;SDS011;3454;42.654;23.378;2022-09-21T12:09:48;2.17;;;0.70;;
6832;SDS011;3454;42.654;23.378;2022-09-21T12:12:22;3.90;;;0.90;;
6832;SDS011;3454;42.654;23.378;2022-09-21T12:20:11;2.00;;;1.00;;
6832;SDS011;3454;42.654;23.378;2022-09-21T12:22:39;0.70;;;0.70;;
6832;SDS011;3454;42.654;23.378;2022-09-21T12:25:25;2.40;;;0.93;;
6832;SDS011;3454;42.654;23.378;2022-09-21T12:30:59;2.65;;;0.70;;
6832;SDS011;3454;42.654;23.378;2022-09-21T12:33:40;1.02;;;0.65;;
6832;SDS011;3454;42.654;23.378;2022-09-21T12:36:16;1.67;;;0.60;;
6832;SDS011;3454;42.654;23.378;2022-09-21T12:38:54;0.40;;;0.40;;
6832;SDS011;3454;42.654;23.378;2022-09-21T12:41:34;0.82;;;0.55;;
6832;SDS011;3454;42.654;23.378;2022-09-21T12:46:48;0.90;;;0.50;;
6832;SDS011;3454;42.654;23.378;2022-09-21T12:49:22;1.27;;;0.43;;
6832;SDS011;3454;42.654;23.378;2022-09-21T12:51:56;0.68;;;0.43;;
6832;SDS011;3454;42.654;23.378;2022-09-21T12:54:34;0.75;;;0.60;;
6832;SDS011;3454;42.654;23.378;2022-09-21T13:02:25;2.58;;;0.65;;
6832;SDS011;3454;42.654;23.378;2022-09-21T13:12:53;1.73;;;1.30;;
6832;SDS011;3454;42.654;23.378;2022-09-21T13:15:25;1.63;;;1.10;;
6832;SDS011;3454;42.654;23.378;2022-09-21T13:18:35;1.27;;;0.85;;
6832;SDS011;3454;42.654;23.378;2022-09-21T13:20:45;2.17;;;1.20;;
6832;SDS011;3454;42.654;23.378;2022-09-21T13:23:14;0.70;;;0.70;;
6832;SDS011;3454;42.654;23.378;2022-09-21T13:25:46;1.48;;;0.70;;
6832;SDS011;3454;42.654;23.378;2022-09-21T13:33:40;0.80;;;0.63;;
6832;SDS011;3454;42.654;23.378;2022-09-21T13:36:45;1.42;;;0.55;;
6832;SDS011;3454;42.654;23.378;2022-09-21T13:44:57;0.60;;;0.60;;
6832;SDS011;3454;42.654;23.378;2022-09-21T13:47:38;2.00;;;0.80;;
6832;SDS011;3454;42.654;23.378;2022-09-21T13:50:10;0.63;;;0.63;;
6832;SDS011;3454;42.654;23.378;2022-09-21T13:52:45;0.70;;;0.60;;
6832;SDS011;3454;42.654;23.378;2022-09-21T13:55:37;4.97;;;0.70;;
6832;SDS011;3454;42.654;23.378;2022-09-21T13:58:17;0.60;;;0.60;;
6832;SDS011;3454;42.654;23.378;2022-09-21T14:03:19;2.45;;;0.77;;
6832;SDS011;3454;42.654;23.378;2022-09-21T14:05:53;0.43;;;0.43;;
6832;SDS011;3454;42.654;23.378;2022-09-21T14:08:27;1.00;;;0.85;;
6832;SDS011;3454;42.654;23.378;2022-09-21T14:19:57;2.08;;;0.80;;
6832;SDS011;3454;42.654;23.378;2022-09-21T14:24:35;1.50;;;1.20;;
6832;SDS011;3454;42.654;23.378;2022-09-21T14:30:04;1.20;;;1.10;;
6832;SDS011;3454;42.654;23.378;2022-09-21T14:32:42;2.97;;;1.33;;
6832;SDS011;3454;42.654;23.378;2022-09-21T14:35:32;2.42;;;1.33;;
6832;SDS011;3454;42.654;23.378;2022-09-21T14:41:02;1.52;;;1.42;;
6832;SDS011;3454;42.654;23.378;2022-09-21T14:43:32;4.93;;;2.28;;
6832;SDS011;3454;42.654;23.378;2022-09-21T15:04:50;2.85;;;1.85;;
6832;SDS011;3454;42.654;23.378;2022-09-21T15:10:30;1.95;;;1.33;;
6832;SDS011;3454;42.654;23.378;2022-09-21T15:18:45;4.63;;;1.70;;
6832;SDS011;3454;42.654;23.378;2022-09-21T15:21:19;2.00;;;1.73;;
6832;SDS011;3454;42.654;23.378;2022-09-21T15:23:46;1.80;;;1.70;;
6832;SDS011;3454;42.654;23.378;2022-09-21T15:26:15;2.13;;;1.75;;
6832;SDS011;3454;42.654;23.378;2022-09-21T15:28:48;1.97;;;1.63;;
6832;SDS011;3454;42.654;23.378;2022-09-21T15:31:17;2.92;;;2.10;;
6832;SDS011;3454;42.654;23.378;2022-09-21T15:33:44;4.03;;;1.80;;
6832;SDS011;3454;42.654;23.378;2022-09-21T15:36:22;1.50;;;1.40;;
6832;SDS011;3454;42.654;23.378;2022-09-21T15:38:51;1.67;;;1.58;;
6832;SDS011;3454;42.654;23.378;2022-09-21T15:41:40;1.77;;;1.63;;
6832;SDS011;3454;42.654;23.378;2022-09-21T15:44:16;3.13;;;1.33;;
6832;SDS011;3454;42.654;23.378;2022-09-21T15:46:46;2.13;;;1.47;;
6832;SDS011;3454;42.654;23.378;2022-09-21T15:49:16;4.50;;;1.70;;
6832;SDS011;3454;42.654;23.378;2022-09-21T15:51:45;2.23;;;1.67;;
6832;SDS011;3454;42.654;23.378;2022-09-21T15:54:34;1.40;;;1.30;;
6832;SDS011;3454;42.654;23.378;2022-09-21T15:57:08;1.00;;;0.87;;
6832;SDS011;3454;42.654;23.378;2022-09-21T16:02:40;1.23;;;1.00;;
6832;SDS011;3454;42.654;23.378;2022-09-21T16:05:14;1.10;;;1.00;;
6832;SDS011;3454;42.654;23.378;2022-09-21T16:07:42;1.08;;;0.82;;
6832;SDS011;3454;42.654;23.378;2022-09-21T16:13:01;1.48;;;1.17;;
6832;SDS011;3454;42.654;23.378;2022-09-21T16:18:53;3.55;;;1.02;;
6832;SDS011;3454;42.654;23.378;2022-09-21T16:21:53;0.95;;;0.85;;
6832;SDS011;3454;42.654;23.378;2022-09-21T16:24:16;1.30;;;1.15;;
6832;SDS011;3454;42.654;23.378;2022-09-21T16:27:05;1.58;;;1.40;;
6832;SDS011;3454;42.654;23.378;2022-09-21T16:29:37;4.22;;;1.30;;
6832;SDS011;3454;42.654;23.378;2022-09-21T16:34:41;5.27;;;1.27;;
6832;SDS011;3454;42.654;23.378;2022-09-21T16:39:51;1.53;;;1.40;;
6832;SDS011;3454;42.654;23.378;2022-09-21T16:42:21;1.67;;;1.42;;
6832;SDS011;3454;42.654;23.378;2022-09-21T16:44:48;2.70;;;1.33;;
6832;SDS011;3454;42.654;23.378;2022-09-21T16:47:15;2.37;;;1.40;;
6832;SDS011;3454;42.654;23.378;2022-09-21T16:49:49;1.50;;;1.40;;
6832;SDS011;3454;42.654;23.378;2022-09-21T16:52:17;2.87;;;1.50;;
6832;SDS011;3454;42.654;23.378;2022-09-21T16:54:43;1.63;;;1.50;;
6832;SDS011;3454;42.654;23.378;2022-09-21T16:57:12;2.50;;;1.30;;
6832;SDS011;3454;42.654;23.378;2022-09-21T16:59:39;3.80;;;1.63;;
6832;SDS011;3454;42.654;23.378;2022-09-21T17:02:04;1.50;;;1.40;;
6832;SDS011;3454;42.654;23.378;2022-09-21T17:04:30;6.27;;;1.80;;
6832;SDS011;3454;42.654;23.378;2022-09-21T17:06:57;2.37;;;1.63;;
6832;SDS011;3454;42.654;23.378;2022-09-21T17:09:30;2.33;;;1.70;;
6832;SDS011;3454;42.654;23.378;2022-09-21T17:12:01;2.23;;;1.80;;
6832;SDS011;3454;42.654;23.378;2022-09-21T17:14:28;2.10;;;1.83;;
6832;SDS011;3454;42.654;23.378;2022-09-21T17:16:59;1.60;;;1.50;;
6832;SDS011;3454;42.654;23.378;2022-09-21T17:19:36;2.70;;;1.97;;
6832;SDS011;3454;42.654;23.378;2022-09-21T17:22:02;2.03;;;1.67;;
6832;SDS011;3454;42.654;23.378;2022-09-21T17:24:29;2.10;;;1.90;;
6832;SDS011;3454;42.654;23.378;2022-09-21T17:26:55;2.37;;;2.17;;
6832;SDS011;3454;42.654;23.378;2022-09-21T17:29:21;2.40;;;2.20;;
6832;SDS011;3454;42.654;23.378;2022-09-21T17:31:52;2.77;;;2.43;;
6832;SDS011;3454;42.654;23.378;2022-09-21T17:34:23;2.97;;;2.33;;
6832;SDS011;3454;42.654;23.378;2022-09-21T17:36:53;4.80;;;3.30;;
6832;SDS011;3454;42.654;23.378;2022-09-21T17:39:19;6.07;;;4.00;;
6832;SDS011;3454;42.654;23.378;2022-09-21T17:41:54;4.63;;;3.57;;
6832;SDS011;3454;42.654;23.378;2022-09-21T17:47:19;5.07;;;3.83;;
6832;SDS011;3454;42.654;23.378;2022-09-21T17:49:48;7.87;;;4.00;;
6832;SDS011;3454;42.654;23.378;2022-09-21T17:52:17;4.43;;;3.50;;
6832;SDS011;3454;42.654;23.378;2022-09-21T17:55:03;5.73;;;3.77;;
6832;SDS011;3454;42.654;23.378;2022-09-21T17:57:43;5.67;;;4.70;;
6832;SDS011;3454;42.654;23.378;2022-09-21T18:00:19;5.17;;;4.40;;
6832;SDS011;3454;42.654;23.378;2022-09-21T18:02:48;6.93;;;4.90;;
6832;SDS011;3454;42.654;23.378;2022-09-21T18:05:18;5.90;;;4.47;;
6832;SDS011;3454;42.654;23.378;2022-09-21T18:07:47;5.63;;;4.10;;
6832;SDS011;3454;42.654;23.378;2022-09-21T18:10:14;6.33;;;4.60;;
6832;SDS011;3454;42.654;23.378;2022-09-21T18:21:28;5.50;;;4.03;;
6832;SDS011;3454;42.654;23.378;2022-09-21T18:26:52;5.20;;;4.20;;
6832;SDS011;3454;42.654;23.378;2022-09-21T18:29:29;5.00;;;3.93;;
6832;SDS011;3454;42.654;23.378;2022-09-21T18:45:54;4.73;;;3.50;;
6832;SDS011;3454;42.654;23.378;2022-09-21T18:51:30;5.27;;;4.20;;
6832;SDS011;3454;42.654;23.378;2022-09-21T18:54:12;4.00;;;3.70;;
6832;SDS011;3454;42.654;23.378;2022-09-21T18:56:43;4.17;;;3.50;;
6832;SDS011;3454;42.654;23.378;2022-09-21T18:59:09;5.53;;;3.87;;
6832;SDS011;3454;42.654;23.378;2022-09-21T19:01:35;5.50;;;4.13;;
6832;SDS011;3454;42.654;23.378;2022-09-21T19:04:01;7.40;;;4.40;;
6832;SDS011;3454;42.654;23.378;2022-09-21T19:09:23;5.57;;;4.50;;
6832;SDS011;3454;42.654;23.378;2022-09-21T19:12:44;5.30;;;4.20;;
6832;SDS011;3454;42.654;23.378;2022-09-21T19:17:52;5.47;;;4.83;;
6832;SDS011;3454;42.654;23.378;2022-09-21T19:25:45;6.67;;;5.73;;
6832;SDS011;3454;42.654;23.378;2022-09-21T19:31:06;7.30;;;5.40;;
6832;SDS011;3454;42.654;23.378;2022-09-21T19:33:34;5.30;;;4.80;;
6832;SDS011;3454;42.654;23.378;2022-09-21T19:36:00;8.23;;;4.90;;
6832;SDS011;3454;42.654;23.378;2022-09-21T19:38:27;7.63;;;5.30;;
6832;SDS011;3454;42.654;23.378;2022-09-21T19:41:04;6.30;;;5.17;;
6832;SDS011;3454;42.654;23.378;2022-09-21T19:43:51;5.63;;;5.03;;
6832;SDS011;3454;42.654;23.378;2022-09-21T19:49:14;6.80;;;5.67;;